sensor_id;sensor_type;location;lat;lon;timestamp;pressure;altitude;pressure_sealevel;temperature;humidity
13058;BME280;6595;49.578;11.012;2023-05-14T00:00:24;989.333;;;9.10;89.1
13058;BME280;6595;49.578;11.012;2023-05-14T00:02:24;989.285;;;9.08;89.1
13058;BME280;6595;49.578;11.012;2023-05-14T00:04:23;989.263;;;9.08;88.6
13058;BME280;6595;49.578;11.012;2023-05-14T00:06:23;989.194;;;9.05;89.1
13058;BME280;6595;49.578;11.012;2023-05-14T00:08:24;989.163;;;9.03;89.0
13058;BME280;6595;49.578;11.012;2023-05-14T00:10:23;989.122;;;8.97;88.9
13058;BME280;6595;49.578;11.012;2023-05-14T00:12:24;989.073;;;8.94;89.0
13058;BME280;6595;49.578;11.012;2023-05-14T00:14:24;989.153;;;8.91;88.9
13058;BME280;6595;49.578;11.012;2023-05-14T00:16:23;989.164;;;8.84;88.9
13058;BME280;6595;49.578;11.012;2023-05-14T00:18:24;989.161;;;8.85;89.3
13058;BME280;6595;49.578;11.012;2023-05-14T00:20:23;989.025;;;8.78;89.2
13058;BME280;6595;49.578;11.012;2023-05-14T00:22:23;989.135;;;8.78;89.7
13058;BME280;6595;49.578;11.012;2023-05-14T00:24:24;989.041;;;8.73;89.6
13058;BME280;6595;49.578;11.012;2023-05-14T00:26:24;988.970;;;8.74;89.7
13058;BME280;6595;49.578;11.012;2023-05-14T00:28:23;989.065;;;8.67;89.5
13058;BME280;6595;49.578;11.012;2023-05-14T00:30:24;989.069;;;8.65;89.5
13058;BME280;6595;49.578;11.012;2023-05-14T00:32:24;989.090;;;8.64;89.6
13058;BME280;6595;49.578;11.012;2023-05-14T00:34:23;989.010;;;8.61;89.6
13058;BME280;6595;49.578;11.012;2023-05-14T00:36:24;989.117;;;8.59;89.5
13058;BME280;6595;49.578;11.012;2023-05-14T00:38:23;989.069;;;8.54;89.9
13058;BME280;6595;49.578;11.012;2023-05-14T00:40:25;989.038;;;8.53;90.2
13058;BME280;6595;49.578;11.012;2023-05-14T00:42:23;989.059;;;8.52;90.3
13058;BME280;6595;49.578;11.012;2023-05-14T00:44:23;989.056;;;8.54;90.4
13058;BME280;6595;49.578;11.012;2023-05-14T00:46:24;988.926;;;8.53;90.6
13058;BME280;6595;49.578;11.012;2023-05-14T00:48:24;989.029;;;8.53;90.5
13058;BME280;6595;49.578;11.012;2023-05-14T00:50:24;989.053;;;8.50;90.6
13058;BME280;6595;49.578;11.012;2023-05-14T00:52:24;989.055;;;8.43;90.7
13058;BME280;6595;49.578;11.012;2023-05-14T00:54:23;989.036;;;8.46;90.6
13058;BME280;6595;49.578;11.012;2023-05-14T00:56:25;989.033;;;8.47;90.7
13058;BME280;6595;49.578;11.012;2023-05-14T00:58:23;989.043;;;8.50;90.7
13058;BME280;6595;49.578;11.012;2023-05-14T01:00:24;989.079;;;8.53;90.4
13058;BME280;6595;49.578;11.012;2023-05-14T01:02:24;989.038;;;8.50;90.6
13058;BME280;6595;49.578;11.012;2023-05-14T01:04:23;989.067;;;8.53;90.9
13058;BME280;6595;49.578;11.012;2023-05-14T01:06:28;988.912;;;8.47;90.8
13058;BME280;6595;49.578;11.012;2023-05-14T01:08:30;989.041;;;8.44;90.9
13058;BME280;6595;49.578;11.012;2023-05-14T01:10:27;989.092;;;8.43;90.8
13058;BME280;6595;49.578;11.012;2023-05-14T01:12:28;988.983;;;8.46;90.7
13058;BME280;6595;49.578;11.012;2023-05-14T01:14:27;989.015;;;8.46;90.5
13058;BME280;6595;49.578;11.012;2023-05-14T01:16:25;989.070;;;8.46;90.6
13058;BME280;6595;49.578;11.012;2023-05-14T01:18:24;989.086;;;8.43;90.7
13058;BME280;6595;49.578;11.012;2023-05-14T01:20:25;989.022;;;8.49;90.6
13058;BME280;6595;49.578;11.012;2023-05-14T01:22:24;989.015;;;8.53;90.8
13058;BME280;6595;49.578;11.012;2023-05-14T01:24:23;989.006;;;8.57;90.6
13058;BME280;6595;49.578;11.012;2023-05-14T01:26:23;988.978;;;8.56;90.6
13058;BME280;6595;49.578;11.012;2023-05-14T01:28:27;988.956;;;8.64;90.8
13058;BME280;6595;49.578;11.012;2023-05-14T01:30:28;988.929;;;8.64;90.6
13058;BME280;6595;49.578;11.012;2023-05-14T01:32:24;988.978;;;8.74;90.8
13058;BME280;6595;49.578;11.012;2023-05-14T01:34:25;988.978;;;8.74;90.8
13058;BME280;6595;49.578;11.012;2023-05-14T01:36:24;988.902;;;8.75;90.5
13058;BME280;6595;49.578;11.012;2023-05-14T01:38:24;988.848;;;8.84;90.6
13058;BME280;6595;49.578;11.012;2023-05-14T01:40:24;988.930;;;8.87;90.5
13058;BME280;6595;49.578;11.012;2023-05-14T01:42:24;988.863;;;8.94;90.5
13058;BME280;6595;49.578;11.012;2023-05-14T01:44:24;988.875;;;8.97;90.3
13058;BME280;6595;49.578;11.012;2023-05-14T01:46:23;988.932;;;9.04;90.4
13058;BME280;6595;49.578;11.012;2023-05-14T01:48:24;988.885;;;9.04;90.2
13058;BME280;6595;49.578;11.012;2023-05-14T01:50:23;989.005;;;9.08;90.1
13058;BME280;6595;49.578;11.012;2023-05-14T01:52:23;988.946;;;9.18;90.2
13058;BME280;6595;49.578;11.012;2023-05-14T01:54:24;988.956;;;9.14;89.4
13058;BME280;6595;49.578;11.012;2023-05-14T01:56:23;988.967;;;9.21;90.0
13058;BME280;6595;49.578;11.012;2023-05-14T01:58:24;988.986;;;9.19;89.7
13058;BME280;6595;49.578;11.012;2023-05-14T02:00:23;988.915;;;9.24;89.7
13058;BME280;6595;49.578;11.012;2023-05-14T02:02:24;988.978;;;9.28;89.3
13058;BME280;6595;49.578;11.012;2023-05-14T02:04:24;988.939;;;9.29;89.0
13058;BME280;6595;49.578;11.012;2023-05-14T02:06:23;989.000;;;9.31;88.5
13058;BME280;6595;49.578;11.012;2023-05-14T02:08:24;989.000;;;9.31;88.5
13058;BME280;6595;49.578;11.012;2023-05-14T02:10:23;988.952;;;9.38;88.6
13058;BME280;6595;49.578;11.012;2023-05-14T02:12:23;988.921;;;9.41;88.5
13058;BME280;6595;49.578;11.012;2023-05-14T02:14:23;988.975;;;9.41;88.6
13058;BME280;6595;49.578;11.012;2023-05-14T02:16:23;988.888;;;9.41;88.0
13058;BME280;6595;49.578;11.012;2023-05-14T02:18:24;988.854;;;9.46;88.0
13058;BME280;6595;49.578;11.012;2023-05-14T02:20:23;988.894;;;9.46;87.4
13058;BME280;6595;49.578;11.012;2023-05-14T02:22:24;988.894;;;9.46;87.4
13058;BME280;6595;49.578;11.012;2023-05-14T02:24:23;988.873;;;9.43;87.1
13058;BME280;6595;49.578;11.012;2023-05-14T02:26:24;988.874;;;9.46;87.2
13058;BME280;6595;49.578;11.012;2023-05-14T02:28:23;988.839;;;9.48;87.3
13058;BME280;6595;49.578;11.012;2023-05-14T02:30:24;988.727;;;9.52;87.1
13058;BME280;6595;49.578;11.012;2023-05-14T02:32:23;988.860;;;9.53;87.1
13058;BME280;6595;49.578;11.012;2023-05-14T02:34:23;988.798;;;9.56;87.0
13058;BME280;6595;49.578;11.012;2023-05-14T02:36:24;988.888;;;9.55;86.8
13058;BME280;6595;49.578;11.012;2023-05-14T02:38:24;988.788;;;9.52;86.8
13058;BME280;6595;49.578;11.012;2023-05-14T02:40:23;988.750;;;9.52;86.8
13058;BME280;6595;49.578;11.012;2023-05-14T02:42:24;988.818;;;9.56;87.2
13058;BME280;6595;49.578;11.012;2023-05-14T02:44:23;988.756;;;9.58;87.0
13058;BME280;6595;49.578;11.012;2023-05-14T02:46:23;988.668;;;9.62;87.2
13058;BME280;6595;49.578;11.012;2023-05-14T02:48:24;988.723;;;9.62;87.3
13058;BME280;6595;49.578;11.012;2023-05-14T02:50:23;988.750;;;9.63;87.6
13058;BME280;6595;49.578;11.012;2023-05-14T02:52:24;988.737;;;9.66;88.0
13058;BME280;6595;49.578;11.012;2023-05-14T02:54:23;988.681;;;9.71;87.4
13058;BME280;6595;49.578;11.012;2023-05-14T02:56:23;988.568;;;9.72;86.8
13058;BME280;6595;49.578;11.012;2023-05-14T02:58:24;988.667;;;9.73;86.5
13058;BME280;6595;49.578;11.012;2023-05-14T03:00:23;988.735;;;9.72;86.7
13058;BME280;6595;49.578;11.012;2023-05-14T03:02:24;988.667;;;9.72;86.9
13058;BME280;6595;49.578;11.012;2023-05-14T03:04:24;988.661;;;9.73;86.9
13058;BME280;6595;49.578;11.012;2023-05-14T03:06:23;988.665;;;9.72;87.1
13058;BME280;6595;49.578;11.012;2023-05-14T03:08:24;988.660;;;9.79;87.0
13058;BME280;6595;49.578;11.012;2023-05-14T03:10:24;988.682;;;9.76;86.5
13058;BME280;6595;49.578;11.012;2023-05-14T03:12:23;988.717;;;9.78;86.9
13058;BME280;6595;49.578;11.012;2023-05-14T03:14:24;988.708;;;9.81;86.6
13058;BME280;6595;49.578;11.012;2023-05-14T03:16:23;988.668;;;9.78;86.7
13058;BME280;6595;49.578;11.012;2023-05-14T03:18:23;988.646;;;9.79;86.5
13058;BME280;6595;49.578;11.012;2023-05-14T03:20:24;988.743;;;9.73;86.9
13058;BME280;6595;49.578;11.012;2023-05-14T03:22:23;988.687;;;9.73;86.6
13058;BME280;6595;49.578;11.012;2023-05-14T03:24:24;988.656;;;9.76;86.9
13058;BME280;6595;49.578;11.012;2023-05-14T03:26:23;988.652;;;9.75;86.8
13058;BME280;6595;49.578;11.012;2023-05-14T03:28:23;988.674;;;9.76;86.7
13058;BME280;6595;49.578;11.012;2023-05-14T03:30:23;988.727;;;9.79;86.8
13058;BME280;6595;49.578;11.012;2023-05-14T03:32:23;988.727;;;9.79;86.8
13058;BME280;6595;49.578;11.012;2023-05-14T03:34:23;988.631;;;9.79;86.7
13058;BME280;6595;49.578;11.012;2023-05-14T03:36:23;988.625;;;9.76;86.5
13058;BME280;6595;49.578;11.012;2023-05-14T03:38:23;988.658;;;9.71;87.6
13058;BME280;6595;49.578;11.012;2023-05-14T03:40:24;988.656;;;9.73;87.5
13058;BME280;6595;49.578;11.012;2023-05-14T03:42:23;988.689;;;9.75;87.1
13058;BME280;6595;49.578;11.012;2023-05-14T03:44:24;988.734;;;9.71;87.0
13058;BME280;6595;49.578;11.012;2023-05-14T03:46:23;988.688;;;9.75;87.1
13058;BME280;6595;49.578;11.012;2023-05-14T03:48:23;988.740;;;9.71;87.1
13058;BME280;6595;49.578;11.012;2023-05-14T03:50:24;988.716;;;9.69;87.0
13058;BME280;6595;49.578;11.012;2023-05-14T03:52:23;988.661;;;9.75;87.5
13058;BME280;6595;49.578;11.012;2023-05-14T03:54:24;988.735;;;9.76;87.1
13058;BME280;6595;49.578;11.012;2023-05-14T03:56:24;988.711;;;9.75;87.1
13058;BME280;6595;49.578;11.012;2023-05-14T03:58:23;988.717;;;9.75;87.1
13058;BME280;6595;49.578;11.012;2023-05-14T04:00:24;988.731;;;9.76;87.3
13058;BME280;6595;49.578;11.012;2023-05-14T04:02:23;988.671;;;9.75;87.6
13058;BME280;6595;49.578;11.012;2023-05-14T04:04:23;988.746;;;9.81;87.4
13058;BME280;6595;49.578;11.012;2023-05-14T04:06:23;988.740;;;9.82;87.1
13058;BME280;6595;49.578;11.012;2023-05-14T04:08:24;988.767;;;9.83;87.2
13058;BME280;6595;49.578;11.012;2023-05-14T04:10:23;988.735;;;9.86;87.4
13058;BME280;6595;49.578;11.012;2023-05-14T04:12:24;988.691;;;9.89;87.1
13058;BME280;6595;49.578;11.012;2023-05-14T04:14:23;988.691;;;9.89;87.1
13058;BME280;6595;49.578;11.012;2023-05-14T04:16:24;988.802;;;9.93;87.4
13058;BME280;6595;49.578;11.012;2023-05-14T04:18:24;988.794;;;9.96;87.2
13058;BME280;6595;49.578;11.012;2023-05-14T04:20:23;988.812;;;9.96;87.0
13058;BME280;6595;49.578;11.012;2023-05-14T04:22:24;988.836;;;9.93;87.0
13058;BME280;6595;49.578;11.012;2023-05-14T04:24:23;988.799;;;9.97;86.7
13058;BME280;6595;49.578;11.012;2023-05-14T04:26:23;988.799;;;9.97;86.7
13058;BME280;6595;49.578;11.012;2023-05-14T04:28:24;988.722;;;10.00;86.2
13058;BME280;6595;49.578;11.012;2023-05-14T04:30:23;988.735;;;10.00;86.4
13058;BME280;6595;49.578;11.012;2023-05-14T04:32:24;988.761;;;10.04;86.3
13058;BME280;6595;49.578;11.012;2023-05-14T04:34:23;988.832;;;10.07;86.4
13058;BME280;6595;49.578;11.012;2023-05-14T04:36:23;988.790;;;10.13;86.4
13058;BME280;6595;49.578;11.012;2023-05-14T04:38:24;988.744;;;10.17;86.3
13058;BME280;6595;49.578;11.012;2023-05-14T04:40:23;988.743;;;10.20;86.4
13058;BME280;6595;49.578;11.012;2023-05-14T04:42:23;988.680;;;10.16;86.4
13058;BME280;6595;49.578;11.012;2023-05-14T04:44:24;988.704;;;10.21;86.4
13058;BME280;6595;49.578;11.012;2023-05-14T04:46:23;988.763;;;10.29;86.4
13058;BME280;6595;49.578;11.012;2023-05-14T04:48:24;988.815;;;10.39;86.0
13058;BME280;6595;49.578;11.012;2023-05-14T04:50:24;988.815;;;10.39;86.0
13058;BME280;6595;49.578;11.012;2023-05-14T04:52:23;988.683;;;10.48;85.7
13058;BME280;6595;49.578;11.012;2023-05-14T04:54:24;988.755;;;10.54;85.8
13058;BME280;6595;49.578;11.012;2023-05-14T04:56:24;988.756;;;10.58;85.0
13058;BME280;6595;49.578;11.012;2023-05-14T04:58:24;988.730;;;10.68;84.6
13058;BME280;6595;49.578;11.012;2023-05-14T05:00:23;988.670;;;10.72;84.4
13058;BME280;6595;49.578;11.012;2023-05-14T05:02:23;988.659;;;10.80;84.1
13058;BME280;6595;49.578;11.012;2023-05-14T05:04:24;988.703;;;10.82;84.0
13058;BME280;6595;49.578;11.012;2023-05-14T05:06:23;988.664;;;10.85;82.9
13058;BME280;6595;49.578;11.012;2023-05-14T05:08:25;988.701;;;10.91;83.0
13058;BME280;6595;49.578;11.012;2023-05-14T05:10:24;988.727;;;10.97;82.4
13058;BME280;6595;49.578;11.012;2023-05-14T05:12:23;988.618;;;10.97;82.6
13058;BME280;6595;49.578;11.012;2023-05-14T05:14:24;988.691;;;11.04;82.4
13058;BME280;6595;49.578;11.012;2023-05-14T05:16:24;988.704;;;11.01;82.0
13058;BME280;6595;49.578;11.012;2023-05-14T05:18:23;988.611;;;11.10;82.3
13058;BME280;6595;49.578;11.012;2023-05-14T05:20:24;988.647;;;11.14;82.0
13058;BME280;6595;49.578;11.012;2023-05-14T05:22:24;988.629;;;11.14;81.4
13058;BME280;6595;49.578;11.012;2023-05-14T05:24:23;988.595;;;11.17;80.9
13058;BME280;6595;49.578;11.012;2023-05-14T05:26:25;988.589;;;11.26;81.5
13058;BME280;6595;49.578;11.012;2023-05-14T05:28:24;988.540;;;11.38;81.9
13058;BME280;6595;49.578;11.012;2023-05-14T05:30:23;988.557;;;11.42;80.9
13058;BME280;6595;49.578;11.012;2023-05-14T05:32:23;988.464;;;11.53;80.4
13058;BME280;6595;49.578;11.012;2023-05-14T05:34:24;988.554;;;11.61;80.0
13058;BME280;6595;49.578;11.012;2023-05-14T05:36:23;988.542;;;11.65;80.6
13058;BME280;6595;49.578;11.012;2023-05-14T05:38:24;988.510;;;11.70;79.4
13058;BME280;6595;49.578;11.012;2023-05-14T05:40:24;988.546;;;11.79;80.2
13058;BME280;6595;49.578;11.012;2023-05-14T05:42:23;988.473;;;11.85;78.5
13058;BME280;6595;49.578;11.012;2023-05-14T05:44:24;988.574;;;11.97;78.9
13058;BME280;6595;49.578;11.012;2023-05-14T05:46:23;988.574;;;11.97;78.9
13058;BME280;6595;49.578;11.012;2023-05-14T05:48:23;988.450;;;12.00;78.6
13058;BME280;6595;49.578;11.012;2023-05-14T05:50:24;988.429;;;12.04;78.3
13058;BME280;6595;49.578;11.012;2023-05-14T05:52:23;988.491;;;12.06;77.8
13058;BME280;6595;49.578;11.012;2023-05-14T05:54:24;988.446;;;12.13;77.2
13058;BME280;6595;49.578;11.012;2023-05-14T05:56:23;988.472;;;12.16;77.6
13058;BME280;6595;49.578;11.012;2023-05-14T05:58:24;988.460;;;12.19;77.3
13058;BME280;6595;49.578;11.012;2023-05-14T06:00:23;988.446;;;12.30;77.5
13058;BME280;6595;49.578;11.012;2023-05-14T06:02:23;988.472;;;12.33;76.9
13058;BME280;6595;49.578;11.012;2023-05-14T06:04:24;988.445;;;12.33;76.6
13058;BME280;6595;49.578;11.012;2023-05-14T06:06:23;988.503;;;12.34;76.2
13058;BME280;6595;49.578;11.012;2023-05-14T06:08:23;988.525;;;12.39;75.6
13058;BME280;6595;49.578;11.012;2023-05-14T06:10:24;988.557;;;12.43;76.3
13058;BME280;6595;49.578;11.012;2023-05-14T06:12:23;988.601;;;12.43;76.5
13058;BME280;6595;49.578;11.012;2023-05-14T06:14:24;988.605;;;12.50;76.1
13058;BME280;6595;49.578;11.012;2023-05-14T06:16:23;988.578;;;12.57;77.4
13058;BME280;6595;49.578;11.012;2023-05-14T06:18:24;988.649;;;12.60;74.8
13058;BME280;6595;49.578;11.012;2023-05-14T06:20:24;988.596;;;12.71;76.6
13058;BME280;6595;49.578;11.012;2023-05-14T06:22:23;988.596;;;12.71;76.6
13058;BME280;6595;49.578;11.012;2023-05-14T06:24:24;988.630;;;12.87;74.0
13058;BME280;6595;49.578;11.012;2023-05-14T06:26:23;988.630;;;12.95;76.0
13058;BME280;6595;49.578;11.012;2023-05-14T06:28:24;988.694;;;13.01;74.0
13058;BME280;6595;49.578;11.012;2023-05-14T06:30:23;988.695;;;13.05;74.6
13058;BME280;6595;49.578;11.012;2023-05-14T06:32:23;988.756;;;13.16;74.2
13058;BME280;6595;49.578;11.012;2023-05-14T06:34:24;988.645;;;13.18;72.8
13058;BME280;6595;49.578;11.012;2023-05-14T06:36:23;988.638;;;13.19;72.7
13058;BME280;6595;49.578;11.012;2023-05-14T06:38:24;988.719;;;13.18;73.8
13058;BME280;6595;49.578;11.012;2023-05-14T06:40:23;988.741;;;13.21;73.8
13058;BME280;6595;49.578;11.012;2023-05-14T06:42:23;988.765;;;13.30;72.8
13058;BME280;6595;49.578;11.012;2023-05-14T06:44:24;988.753;;;13.34;72.8
13058;BME280;6595;49.578;11.012;2023-05-14T06:46:23;988.709;;;13.38;72.5
13058;BME280;6595;49.578;11.012;2023-05-14T06:48:24;988.678;;;13.43;71.7
13058;BME280;6595;49.578;11.012;2023-05-14T06:50:24;988.698;;;13.53;71.3
13058;BME280;6595;49.578;11.012;2023-05-14T06:52:23;988.735;;;13.55;71.2
13058;BME280;6595;49.578;11.012;2023-05-14T06:54:24;988.706;;;13.62;69.9
13058;BME280;6595;49.578;11.012;2023-05-14T06:56:23;988.737;;;13.58;70.7
13058;BME280;6595;49.578;11.012;2023-05-14T06:58:24;988.619;;;13.56;70.4
13058;BME280;6595;49.578;11.012;2023-05-14T07:00:24;988.703;;;13.59;69.3
13058;BME280;6595;49.578;11.012;2023-05-14T07:02:23;988.730;;;13.53;70.6
13058;BME280;6595;49.578;11.012;2023-05-14T07:04:24;988.671;;;13.72;68.9
13058;BME280;6595;49.578;11.012;2023-05-14T07:06:23;988.696;;;13.83;68.8
13058;BME280;6595;49.578;11.012;2023-05-14T07:08:23;988.684;;;13.96;68.8
13058;BME280;6595;49.578;11.012;2023-05-14T07:10:24;988.740;;;14.09;68.4
13058;BME280;6595;49.578;11.012;2023-05-14T07:12:23;988.686;;;14.14;67.0
13058;BME280;6595;49.578;11.012;2023-05-14T07:14:24;988.713;;;14.13;67.1
13058;BME280;6595;49.578;11.012;2023-05-14T07:16:23;988.696;;;14.19;68.3
13058;BME280;6595;49.578;11.012;2023-05-14T07:18:23;988.746;;;14.33;67.2
13058;BME280;6595;49.578;11.012;2023-05-14T07:20:24;988.692;;;14.40;66.6
13058;BME280;6595;49.578;11.012;2023-05-14T07:22:23;988.685;;;14.57;66.1
13058;BME280;6595;49.578;11.012;2023-05-14T07:24:23;988.699;;;14.58;66.3
13058;BME280;6595;49.578;11.012;2023-05-14T07:26:24;988.611;;;14.71;65.5
13058;BME280;6595;49.578;11.012;2023-05-14T07:28:23;988.663;;;14.82;65.7
13058;BME280;6595;49.578;11.012;2023-05-14T07:30:24;988.660;;;14.81;64.0
13058;BME280;6595;49.578;11.012;2023-05-14T07:32:24;988.674;;;14.87;64.3
13058;BME280;6595;49.578;11.012;2023-05-14T07:34:23;988.604;;;14.82;65.0
13058;BME280;6595;49.578;11.012;2023-05-14T07:36:24;988.608;;;14.91;65.7
13058;BME280;6595;49.578;11.012;2023-05-14T07:38:24;988.651;;;15.03;64.3
13058;BME280;6595;49.578;11.012;2023-05-14T07:40:23;988.732;;;15.02;64.0
13058;BME280;6595;49.578;11.012;2023-05-14T07:42:24;988.692;;;14.98;65.4
13058;BME280;6595;49.578;11.012;2023-05-14T07:44:23;988.662;;;14.96;64.6
13058;BME280;6595;49.578;11.012;2023-05-14T07:46:24;988.662;;;14.96;64.6
13058;BME280;6595;49.578;11.012;2023-05-14T07:48:23;988.601;;;15.21;64.0
13058;BME280;6595;49.578;11.012;2023-05-14T07:50:23;988.709;;;15.21;63.2
13058;BME280;6595;49.578;11.012;2023-05-14T07:52:24;988.622;;;15.25;65.0
13058;BME280;6595;49.578;11.012;2023-05-14T07:54:23;988.627;;;15.18;62.9
13058;BME280;6595;49.578;11.012;2023-05-14T07:56:23;988.637;;;15.11;63.6
13058;BME280;6595;49.578;11.012;2023-05-14T07:58:24;988.642;;;14.88;64.3
13058;BME280;6595;49.578;11.012;2023-05-14T08:00:23;988.662;;;14.89;64.3
13058;BME280;6595;49.578;11.012;2023-05-14T08:02:24;988.639;;;14.94;64.6
13058;BME280;6595;49.578;11.012;2023-05-14T08:04:24;988.617;;;14.82;65.4
13058;BME280;6595;49.578;11.012;2023-05-14T08:06:23;988.609;;;14.71;64.4
13058;BME280;6595;49.578;11.012;2023-05-14T08:08:23;988.581;;;14.75;65.7
13058;BME280;6595;49.578;11.012;2023-05-14T08:10:24;988.542;;;14.85;65.3
13058;BME280;6595;49.578;11.012;2023-05-14T08:12:23;988.525;;;14.81;65.1
13058;BME280;6595;49.578;11.012;2023-05-14T08:14:24;988.544;;;14.75;66.8
13058;BME280;6595;49.578;11.012;2023-05-14T08:16:24;988.571;;;14.78;66.3
13058;BME280;6595;49.578;11.012;2023-05-14T08:18:23;988.621;;;14.60;66.4
13058;BME280;6595;49.578;11.012;2023-05-14T08:20:24;988.528;;;14.60;65.7
13058;BME280;6595;49.578;11.012;2023-05-14T08:22:24;988.546;;;14.54;66.0
13058;BME280;6595;49.578;11.012;2023-05-14T08:24:23;988.534;;;14.70;65.1
13058;BME280;6595;49.578;11.012;2023-05-14T08:26:23;988.529;;;14.78;65.8
13058;BME280;6595;49.578;11.012;2023-05-14T08:28:24;988.529;;;14.78;65.8
13058;BME280;6595;49.578;11.012;2023-05-14T08:30:23;988.552;;;14.67;65.9
13058;BME280;6595;49.578;11.012;2023-05-14T08:32:23;988.472;;;14.68;66.2
13058;BME280;6595;49.578;11.012;2023-05-14T08:34:24;988.509;;;14.64;66.9
13058;BME280;6595;49.578;11.012;2023-05-14T08:36:23;988.492;;;14.63;66.8
13058;BME280;6595;49.578;11.012;2023-05-14T08:38:24;988.475;;;14.64;66.9
13058;BME280;6595;49.578;11.012;2023-05-14T08:40:24;988.540;;;14.70;66.7
13058;BME280;6595;49.578;11.012;2023-05-14T08:42:24;988.488;;;14.78;67.2
13058;BME280;6595;49.578;11.012;2023-05-14T08:44:29;988.462;;;14.78;65.0
13058;BME280;6595;49.578;11.012;2023-05-14T08:46:24;988.481;;;14.77;64.8
13058;BME280;6595;49.578;11.012;2023-05-14T08:48:25;988.474;;;14.88;66.0
13058;BME280;6595;49.578;11.012;2023-05-14T08:50:24;988.454;;;14.89;65.3
13058;BME280;6595;49.578;11.012;2023-05-14T08:52:23;988.427;;;14.74;66.8
13058;BME280;6595;49.578;11.012;2023-05-14T08:54:23;988.457;;;14.82;66.3
13058;BME280;6595;49.578;11.012;2023-05-14T08:56:24;988.401;;;14.85;66.7
13058;BME280;6595;49.578;11.012;2023-05-14T08:58:24;988.387;;;14.85;66.0
13058;BME280;6595;49.578;11.012;2023-05-14T09:00:24;988.466;;;14.77;66.9
13058;BME280;6595;49.578;11.012;2023-05-14T09:02:27;988.432;;;14.89;66.2
13058;BME280;6595;49.578;11.012;2023-05-14T09:04:24;988.415;;;15.01;65.0
13058;BME280;6595;49.578;11.012;2023-05-14T09:06:25;988.386;;;14.99;65.7
13058;BME280;6595;49.578;11.012;2023-05-14T09:08:23;988.340;;;14.96;66.3
13058;BME280;6595;49.578;11.012;2023-05-14T09:10:23;988.341;;;15.05;66.4
13058;BME280;6595;49.578;11.012;2023-05-14T09:12:24;988.424;;;15.08;65.5
13058;BME280;6595;49.578;11.012;2023-05-14T09:14:23;988.343;;;15.13;65.0
13058;BME280;6595;49.578;11.012;2023-05-14T09:16:24;988.400;;;15.39;63.9
13058;BME280;6595;49.578;11.012;2023-05-14T09:18:24;988.328;;;15.33;64.1
13058;BME280;6595;49.578;11.012;2023-05-14T09:20:23;988.333;;;15.56;64.6
13058;BME280;6595;49.578;11.012;2023-05-14T09:22:23;988.342;;;15.53;64.1
13058;BME280;6595;49.578;11.012;2023-05-14T09:24:25;988.444;;;15.56;64.3
13058;BME280;6595;49.578;11.012;2023-05-14T09:26:24;988.405;;;15.59;63.8
13058;BME280;6595;49.578;11.012;2023-05-14T09:28:24;988.392;;;15.50;62.0
13058;BME280;6595;49.578;11.012;2023-05-14T09:30:24;988.411;;;15.47;64.6
13058;BME280;6595;49.578;11.012;2023-05-14T09:32:23;988.361;;;15.52;64.5
13058;BME280;6595;49.578;11.012;2023-05-14T09:34:25;988.443;;;15.67;63.6
13058;BME280;6595;49.578;11.012;2023-05-14T09:36:23;988.452;;;15.56;63.5
13058;BME280;6595;49.578;11.012;2023-05-14T09:38:27;988.412;;;15.72;62.9
13058;BME280;6595;49.578;11.012;2023-05-14T09:40:23;988.349;;;15.73;63.4
13058;BME280;6595;49.578;11.012;2023-05-14T09:42:23;988.391;;;15.77;62.9
13058;BME280;6595;49.578;11.012;2023-05-14T09:44:24;988.195;;;15.86;62.6
13058;BME280;6595;49.578;11.012;2023-05-14T09:46:23;988.165;;;15.96;63.1
13058;BME280;6595;49.578;11.012;2023-05-14T09:48:24;988.191;;;16.14;63.9
13058;BME280;6595;49.578;11.012;2023-05-14T09:50:24;988.194;;;16.28;63.3
13058;BME280;6595;49.578;11.012;2023-05-14T09:52:23;988.191;;;16.44;63.1
13058;BME280;6595;49.578;11.012;2023-05-14T09:54:25;988.145;;;16.50;59.9
13058;BME280;6595;49.578;11.012;2023-05-14T09:56:23;988.184;;;16.45;59.9
13058;BME280;6595;49.578;11.012;2023-05-14T09:58:24;988.137;;;16.78;59.4
13058;BME280;6595;49.578;11.012;2023-05-14T10:00:24;988.129;;;16.79;58.1
13058;BME280;6595;49.578;11.012;2023-05-14T10:02:25;988.030;;;17.02;60.8
13058;BME280;6595;49.578;11.012;2023-05-14T10:04:23;988.089;;;17.16;58.8
13058;BME280;6595;49.578;11.012;2023-05-14T10:06:27;988.004;;;17.08;58.0
13058;BME280;6595;49.578;11.012;2023-05-14T10:08:26;988.035;;;17.29;58.0
13058;BME280;6595;49.578;11.012;2023-05-14T10:10:25;988.028;;;17.32;56.0
13058;BME280;6595;49.578;11.012;2023-05-14T10:12:26;988.033;;;17.42;58.6
13058;BME280;6595;49.578;11.012;2023-05-14T10:14:26;988.005;;;17.47;57.6
13058;BME280;6595;49.578;11.012;2023-05-14T10:16:27;987.938;;;17.40;56.5
13058;BME280;6595;49.578;11.012;2023-05-14T10:18:25;987.938;;;17.40;56.5
13058;BME280;6595;49.578;11.012;2023-05-14T10:20:23;988.043;;;17.49;57.4
13058;BME280;6595;49.578;11.012;2023-05-14T10:22:26;987.973;;;17.25;57.0
13058;BME280;6595;49.578;11.012;2023-05-14T10:24:24;988.039;;;17.16;57.3
13058;BME280;6595;49.578;11.012;2023-05-14T10:26:24;988.017;;;17.16;55.2
13058;BME280;6595;49.578;11.012;2023-05-14T10:28:24;987.939;;;17.21;57.2
13058;BME280;6595;49.578;11.012;2023-05-14T10:30:23;987.950;;;17.32;57.8
13058;BME280;6595;49.578;11.012;2023-05-14T10:32:24;987.991;;;17.36;58.4
13058;BME280;6595;49.578;11.012;2023-05-14T10:34:33;987.915;;;17.42;57.2
13058;BME280;6595;49.578;11.012;2023-05-14T10:36:24;987.941;;;17.60;58.6
13058;BME280;6595;49.578;11.012;2023-05-14T10:38:26;987.919;;;17.60;57.1
13058;BME280;6595;49.578;11.012;2023-05-14T10:40:24;987.847;;;17.74;55.9
13058;BME280;6595;49.578;11.012;2023-05-14T10:42:25;987.900;;;17.67;57.1
13058;BME280;6595;49.578;11.012;2023-05-14T10:44:24;987.837;;;17.35;55.6
13058;BME280;6595;49.578;11.012;2023-05-14T10:46:24;987.840;;;17.45;57.5
13058;BME280;6595;49.578;11.012;2023-05-14T10:48:24;987.856;;;17.45;57.6
13058;BME280;6595;49.578;11.012;2023-05-14T10:50:25;987.836;;;17.49;59.5
13058;BME280;6595;49.578;11.012;2023-05-14T10:52:24;987.812;;;17.26;59.0
13058;BME280;6595;49.578;11.012;2023-05-14T10:54:26;987.817;;;17.40;59.0
13058;BME280;6595;49.578;11.012;2023-05-14T10:56:23;987.818;;;17.53;56.6